sensor_id;sensor_type;location;lat;lon;timestamp;pressure;altitude;pressure_sealevel;temperature;humidity
33496;BME280;19836;55.812;37.560;2022-11-20T00:02:10;99678.00;;;-0.02;74.97
33496;BME280;19836;55.812;37.560;2022-11-20T00:04:55;99676.22;;;-0.04;75.30
33496;BME280;19836;55.812;37.560;2022-11-20T00:19:40;99682.31;;;-0.08;75.27
33496;BME280;19836;55.812;37.560;2022-11-20T00:22:07;99688.47;;;-0.06;75.66
33496;BME280;19836;55.812;37.560;2022-11-20T00:25:02;99686.69;;;-0.07;75.65
33496;BME280;19836;55.812;37.560;2022-11-20T00:27:54;99679.72;;;-0.05;75.70
33496;BME280;19836;55.812;37.560;2022-11-20T00:30:36;99685.84;;;-0.05;75.75
33496;BME280;19836;55.812;37.560;2022-11-20T00:33:03;99684.94;;;-0.08;75.72
33496;BME280;19836;55.812;37.560;2022-11-20T00:35:29;99690.25;;;-0.07;75.62
33496;BME280;19836;55.812;37.560;2022-11-20T00:37:55;99682.31;;;-0.08;75.96
33496;BME280;19836;55.812;37.560;2022-11-20T00:40:22;99687.59;;;-0.07;75.88
33496;BME280;19836;55.812;37.560;2022-11-20T00:43:09;99685.78;;;-0.12;75.77
33496;BME280;19836;55.812;37.560;2022-11-20T00:46:04;99687.53;;;-0.13;75.92
33496;BME280;19836;55.812;37.560;2022-11-20T00:48:32;99683.13;;;-0.12;76.03
33496;BME280;19836;55.812;37.560;2022-11-20T00:51:01;99678.78;;;-0.12;76.30
33496;BME280;19836;55.812;37.560;2022-11-20T00:53:30;99678.75;;;-0.13;75.89
33496;BME280;19836;55.812;37.560;2022-11-20T00:56:02;99678.78;;;-0.12;76.06
33496;BME280;19836;55.812;37.560;2022-11-20T01:25:41;99677.75;;;-0.24;75.87
33496;BME280;19836;55.812;37.560;2022-11-20T01:28:07;99685.66;;;-0.22;76.24
33496;BME280;19836;55.812;37.560;2022-11-20T01:30:34;99679.50;;;-0.23;76.03
33496;BME280;19836;55.812;37.560;2022-11-20T01:33:00;99688.28;;;-0.24;76.30
33496;BME280;19836;55.812;37.560;2022-11-20T01:35:26;99686.50;;;-0.24;76.26
33496;BME280;19836;55.812;37.560;2022-11-20T01:37:52;99692.72;;;-0.20;75.87
33496;BME280;19836;55.812;37.560;2022-11-20T01:40:18;99680.41;;;-0.21;76.13
33496;BME280;19836;55.812;37.560;2022-11-20T01:42:47;99681.28;;;-0.22;76.28
33496;BME280;19836;55.812;37.560;2022-11-20T01:48:14;99683.97;;;-0.17;76.45
33496;BME280;19836;55.812;37.560;2022-11-20T01:50:52;99690.94;;;-0.20;75.94
33496;BME280;19836;55.812;37.560;2022-11-20T01:53:21;99699.69;;;-0.22;76.20
33496;BME280;19836;55.812;37.560;2022-11-20T01:55:50;99701.47;;;-0.20;75.89
33496;BME280;19836;55.812;37.560;2022-11-20T01:58:18;99701.50;;;-0.18;76.03
33496;BME280;19836;55.812;37.560;2022-11-20T02:00:47;99710.31;;;-0.17;76.02
33496;BME280;19836;55.812;37.560;2022-11-20T02:03:16;99709.38;;;-0.20;75.42
33496;BME280;19836;55.812;37.560;2022-11-20T02:08:27;99714.53;;;-0.30;75.95
33496;BME280;19836;55.812;37.560;2022-11-20T02:10:53;99714.44;;;-0.36;75.34
33496;BME280;19836;55.812;37.560;2022-11-20T02:13:22;99722.25;;;-0.42;75.54
33496;BME280;19836;55.812;37.560;2022-11-20T02:16:25;99724.88;;;-0.45;75.53
33496;BME280;19836;55.812;37.560;2022-11-20T02:18:54;99722.22;;;-0.44;75.33
33496;BME280;19836;55.812;37.560;2022-11-20T02:24:14;99733.59;;;-0.46;75.58
33496;BME280;19836;55.812;37.560;2022-11-20T02:29:13;99730.97;;;-0.47;75.35
33496;BME280;19836;55.812;37.560;2022-11-20T02:31:42;99731.84;;;-0.47;75.38
33496;BME280;19836;55.812;37.560;2022-11-20T02:34:12;99738.88;;;-0.46;75.75
33496;BME280;19836;55.812;37.560;2022-11-20T02:36:41;99735.34;;;-0.48;75.80
33496;BME280;19836;55.812;37.560;2022-11-20T02:39:08;99740.59;;;-0.48;75.58
33496;BME280;19836;55.812;37.560;2022-11-20T02:41:36;99744.09;;;-0.49;75.32
33496;BME280;19836;55.812;37.560;2022-11-20T02:44:03;99741.41;;;-0.52;75.58
33496;BME280;19836;55.812;37.560;2022-11-20T02:46:29;99739.72;;;-0.50;75.77
33496;BME280;19836;55.812;37.560;2022-11-20T02:48:55;99743.22;;;-0.48;75.27
33496;BME280;19836;55.812;37.560;2022-11-20T02:51:24;99744.97;;;-0.49;75.48
33496;BME280;19836;55.812;37.560;2022-11-20T02:53:50;99751.06;;;-0.51;75.54
33496;BME280;19836;55.812;37.560;2022-11-20T02:56:16;99743.19;;;-0.51;75.73
33496;BME280;19836;55.812;37.560;2022-11-20T03:01:49;99739.72;;;-0.50;75.73
33496;BME280;19836;55.812;37.560;2022-11-20T03:04:15;99744.09;;;-0.49;75.53
33496;BME280;19836;55.812;37.560;2022-11-20T03:06:41;99754.63;;;-0.49;75.75
33496;BME280;19836;55.812;37.560;2022-11-20T03:09:06;99752.75;;;-0.56;75.73
33496;BME280;19836;55.812;37.560;2022-11-20T03:11:33;99752.69;;;-0.62;75.57
33496;BME280;19836;55.812;37.560;2022-11-20T03:14:03;99762.31;;;-0.64;75.62
33496;BME280;19836;55.812;37.560;2022-11-20T03:16:30;99757.88;;;-0.68;75.55
33496;BME280;19836;55.812;37.560;2022-11-20T03:19:02;99757.81;;;-0.71;75.24
33496;BME280;19836;55.812;37.560;2022-11-20T03:21:40;99753.38;;;-0.75;75.57
33496;BME280;19836;55.812;37.560;2022-11-20T03:24:06;99755.97;;;-0.78;75.15
33496;BME280;19836;55.812;37.560;2022-11-20T03:26:32;99757.75;;;-0.76;75.39
33496;BME280;19836;55.812;37.560;2022-11-20T03:28:59;99755.97;;;-0.78;75.17
33496;BME280;19836;55.812;37.560;2022-11-20T03:31:29;99761.22;;;-0.78;75.22
33496;BME280;19836;55.812;37.560;2022-11-20T03:33:56;99760.31;;;-0.80;75.41
33496;BME280;19836;55.812;37.560;2022-11-20T03:36:23;99762.91;;;-0.83;75.38
33496;BME280;19836;55.812;37.560;2022-11-20T03:38:50;99769.13;;;-0.78;75.22
33496;BME280;19836;55.812;37.560;2022-11-20T03:41:19;99757.81;;;-0.71;75.50
33496;BME280;19836;55.812;37.560;2022-11-20T03:46:40;99759.53;;;-0.73;75.38
33496;BME280;19836;55.812;37.560;2022-11-20T03:49:06;99763.03;;;-0.74;75.00
33496;BME280;19836;55.812;37.560;2022-11-20T03:51:33;99761.28;;;-0.75;75.20
33496;BME280;19836;55.812;37.560;2022-11-20T03:54:00;99767.44;;;-0.73;75.23
33496;BME280;19836;55.812;37.560;2022-11-20T03:56:28;99766.53;;;-0.75;75.08
33496;BME280;19836;55.812;37.560;2022-11-20T03:58:54;99773.56;;;-0.74;75.26
33496;BME280;19836;55.812;37.560;2022-11-20T04:01:30;99773.59;;;-0.71;75.25
33496;BME280;19836;55.812;37.560;2022-11-20T04:03:59;99777.94;;;-0.73;75.20
33496;BME280;19836;55.812;37.560;2022-11-20T04:06:36;99780.59;;;-0.73;75.51
33496;BME280;19836;55.812;37.560;2022-11-20T04:09:03;99773.56;;;-0.74;75.54
33496;BME280;19836;55.812;37.560;2022-11-20T04:11:30;99778.00;;;-0.69;75.48
33496;BME280;19836;55.812;37.560;2022-11-20T04:13:57;99785.13;;;-0.63;75.34
33496;BME280;19836;55.812;37.560;2022-11-20T04:16:28;99791.31;;;-0.58;75.34
33496;BME280;19836;55.812;37.560;2022-11-20T04:18:55;99785.19;;;-0.57;75.47
33496;BME280;19836;55.812;37.560;2022-11-20T04:21:22;99791.28;;;-0.61;75.09
33496;BME280;19836;55.812;37.560;2022-11-20T04:23:48;99789.50;;;-0.65;74.81
33496;BME280;19836;55.812;37.560;2022-11-20T04:26:15;99796.50;;;-0.64;75.35
33496;BME280;19836;55.812;37.560;2022-11-20T04:28:43;99799.94;;;-0.68;75.17
33496;BME280;19836;55.812;37.560;2022-11-20T04:31:16;99809.56;;;-0.69;75.16
33496;BME280;19836;55.812;37.560;2022-11-20T04:33:43;99808.72;;;-0.69;74.71
33496;BME280;19836;55.812;37.560;2022-11-20T04:36:13;99814.00;;;-0.66;74.88
33496;BME280;19836;55.812;37.560;2022-11-20T04:38:43;99807.03;;;-0.64;75.31
33496;BME280;19836;55.812;37.560;2022-11-20T04:41:12;99806.13;;;-0.65;75.10
33496;BME280;19836;55.812;37.560;2022-11-20T04:43:45;99812.31;;;-0.63;74.90
33496;BME280;19836;55.812;37.560;2022-11-20T04:46:11;99822.84;;;-0.61;75.11
33496;BME280;19836;55.812;37.560;2022-11-20T04:48:39;99815.81;;;-0.62;74.79
33496;BME280;19836;55.812;37.560;2022-11-20T04:51:05;99830.75;;;-0.63;75.03
33496;BME280;19836;55.812;37.560;2022-11-20T04:53:33;99837.69;;;-0.65;74.83
33496;BME280;19836;55.812;37.560;2022-11-20T04:56:00;99845.59;;;-0.65;74.85
33496;BME280;19836;55.812;37.560;2022-11-20T04:58:28;99837.72;;;-0.63;74.60
33496;BME280;19836;55.812;37.560;2022-11-20T05:01:02;99842.13;;;-0.62;74.73
33496;BME280;19836;55.812;37.560;2022-11-20T05:03:34;99844.78;;;-0.61;74.64
33496;BME280;19836;55.812;37.560;2022-11-20T05:06:03;99846.56;;;-0.58;74.17
33496;BME280;19836;55.812;37.560;2022-11-20T05:08:29;99850.94;;;-0.60;74.34
33496;BME280;19836;55.812;37.560;2022-11-20T05:11:06;99845.78;;;-0.54;74.55
33496;BME280;19836;55.812;37.560;2022-11-20T05:13:32;99840.63;;;-0.47;74.48
33496;BME280;19836;55.812;37.560;2022-11-20T05:16:05;99849.38;;;-0.46;74.42
33496;BME280;19836;55.812;37.560;2022-11-20T05:18:32;99845.91;;;-0.44;74.94
33496;BME280;19836;55.812;37.560;2022-11-20T05:21:02;99845.94;;;-0.42;74.71
33496;BME280;19836;55.812;37.560;2022-11-20T05:23:29;99854.66;;;-0.46;74.47
33496;BME280;19836;55.812;37.560;2022-11-20T05:25:55;99858.16;;;-0.47;74.28
33496;BME280;19836;55.812;37.560;2022-11-20T05:28:24;99859.94;;;-0.45;74.27
33496;BME280;19836;55.812;37.560;2022-11-20T05:30:51;99866.97;;;-0.44;74.07
33496;BME280;19836;55.812;37.560;2022-11-20T05:33:17;99866.13;;;-0.43;74.22
33496;BME280;19836;55.812;37.560;2022-11-20T05:35:44;99865.31;;;-0.37;74.45
33496;BME280;19836;55.812;37.560;2022-11-20T05:38:10;99867.91;;;-0.39;74.52
33496;BME280;19836;55.812;37.560;2022-11-20T05:40:36;99877.59;;;-0.36;74.06
33496;BME280;19836;55.812;37.560;2022-11-20T05:43:02;99884.66;;;-0.35;74.06
33496;BME280;19836;55.812;37.560;2022-11-20T05:45:28;99879.38;;;-0.37;74.37
33496;BME280;19836;55.812;37.560;2022-11-20T05:47:57;99876.66;;;-0.43;73.92
33496;BME280;19836;55.812;37.560;2022-11-20T05:50:24;99876.59;;;-0.46;74.62
33496;BME280;19836;55.812;37.560;2022-11-20T05:52:51;99881.84;;;-0.46;73.80
33496;BME280;19836;55.812;37.560;2022-11-20T05:55:17;99882.78;;;-0.42;73.91
33496;BME280;19836;55.812;37.560;2022-11-20T05:57:43;99889.94;;;-0.32;73.98
33496;BME280;19836;55.812;37.560;2022-11-20T06:00:09;99893.53;;;-0.27;74.20
33496;BME280;19836;55.812;37.560;2022-11-20T06:02:38;99890.88;;;-0.29;74.22
33496;BME280;19836;55.812;37.560;2022-11-20T06:05:04;99893.53;;;-0.27;74.01
33496;BME280;19836;55.812;37.560;2022-11-20T06:07:30;99910.25;;;-0.25;74.24
33496;BME280;19836;55.812;37.560;2022-11-20T06:09:59;99912.91;;;-0.25;73.85
33496;BME280;19836;55.812;37.560;2022-11-20T06:12:26;99917.28;;;-0.24;74.26
33496;BME280;19836;55.812;37.560;2022-11-20T06:15:00;99916.41;;;-0.23;74.00
33496;BME280;19836;55.812;37.560;2022-11-20T06:17:28;99923.50;;;-0.19;73.84
33496;BME280;19836;55.812;37.560;2022-11-20T06:19:54;99923.53;;;-0.17;74.14
33496;BME280;19836;55.812;37.560;2022-11-20T06:22:20;99921.84;;;-0.13;74.45
33496;BME280;19836;55.812;37.560;2022-11-20T06:24:48;99926.28;;;-0.09;74.41
33496;BME280;19836;55.812;37.560;2022-11-20T06:27:26;99926.31;;;-0.07;74.28
33496;BME280;19836;55.812;37.560;2022-11-20T06:29:56;99927.22;;;-0.07;73.98
33496;BME280;19836;55.812;37.560;2022-11-20T06:32:22;99937.78;;;-0.05;73.91
33496;BME280;19836;55.812;37.560;2022-11-20T06:34:47;99939.56;;;-0.03;74.07
33496;BME280;19836;55.812;37.560;2022-11-20T06:37:13;99941.38;;;0.03;73.98
33496;BME280;19836;55.812;37.560;2022-11-20T06:39:42;99939.75;;;0.11;74.04
33496;BME280;19836;55.812;37.560;2022-11-20T06:42:08;99944.19;;;0.15;74.00
33496;BME280;19836;55.812;37.560;2022-11-20T06:47:29;99946.91;;;0.21;73.53
33496;BME280;19836;55.812;37.560;2022-11-20T06:49:55;99943.50;;;0.28;73.49
33496;BME280;19836;55.812;37.560;2022-11-20T06:52:21;99945.25;;;0.29;73.24
33496;BME280;19836;55.812;37.560;2022-11-20T06:54:47;99940.03;;;0.32;73.68
33496;BME280;19836;55.812;37.560;2022-11-20T07:00:04;99937.47;;;0.36;73.17
33496;BME280;19836;55.812;37.560;2022-11-20T07:02:30;99936.59;;;0.36;73.27
33496;BME280;19836;55.812;37.560;2022-11-20T07:04:56;99932.16;;;0.35;73.25
33496;BME280;19836;55.812;37.560;2022-11-20T07:07:21;99940.97;;;0.35;73.11
33496;BME280;19836;55.812;37.560;2022-11-20T07:09:47;99935.66;;;0.31;73.06
33496;BME280;19836;55.812;37.560;2022-11-20T07:12:13;99937.44;;;0.35;73.35
33496;BME280;19836;55.812;37.560;2022-11-20T07:14:38;99933.19;;;0.44;73.46
33496;BME280;19836;55.812;37.560;2022-11-20T07:17:04;99934.16;;;0.51;73.07
33496;BME280;19836;55.812;37.560;2022-11-20T07:19:30;99931.53;;;0.54;73.14
33496;BME280;19836;55.812;37.560;2022-11-20T07:21:55;99924.59;;;0.60;72.66
33496;BME280;19836;55.812;37.560;2022-11-20T07:24:21;99929.91;;;0.65;72.65
33496;BME280;19836;55.812;37.560;2022-11-20T07:26:47;99936.06;;;0.64;73.04
33496;BME280;19836;55.812;37.560;2022-11-20T07:29:16;99940.44;;;0.62;72.33
33496;BME280;19836;55.812;37.560;2022-11-20T07:31:42;99940.44;;;0.62;72.58
33496;BME280;19836;55.812;37.560;2022-11-20T07:34:08;99948.38;;;0.63;72.51
33496;BME280;19836;55.812;37.560;2022-11-20T07:36:34;99936.06;;;0.65;72.69
33496;BME280;19836;55.812;37.560;2022-11-20T07:39:00;99939.63;;;0.66;72.47
33496;BME280;19836;55.812;37.560;2022-11-20T07:41:26;99939.63;;;0.69;71.89
33496;BME280;19836;55.812;37.560;2022-11-20T07:43:53;99935.28;;;0.74;72.33
33496;BME280;19836;55.812;37.560;2022-11-20T07:46:19;99940.63;;;0.77;72.43
33496;BME280;19836;55.812;37.560;2022-11-20T07:48:45;99951.09;;;0.71;72.07
33496;BME280;19836;55.812;37.560;2022-11-20T07:53:45;99954.69;;;0.79;71.53
33496;BME280;19836;55.812;37.560;2022-11-20T07:56:14;99960.84;;;0.78;71.27
33496;BME280;19836;55.812;37.560;2022-11-20T07:58:41;99958.19;;;0.78;71.43
33496;BME280;19836;55.812;37.560;2022-11-20T08:01:06;99964.34;;;0.77;71.09
33496;BME280;19836;55.812;37.560;2022-11-20T08:03:32;99953.81;;;0.77;71.13
33496;BME280;19836;55.812;37.560;2022-11-20T08:05:59;99952.88;;;0.75;71.05
33496;BME280;19836;55.812;37.560;2022-11-20T08:08:26;99955.63;;;0.81;71.31
33496;BME280;19836;55.812;37.560;2022-11-20T08:10:52;99961.81;;;0.87;71.38
33496;BME280;19836;55.812;37.560;2022-11-20T08:13:17;99974.16;;;0.90;71.31
33496;BME280;19836;55.812;37.560;2022-11-20T08:16:02;99960.97;;;0.87;70.89
33496;BME280;19836;55.812;37.560;2022-11-20T08:18:27;99962.78;;;0.94;71.38
33496;BME280;19836;55.812;37.560;2022-11-20T08:20:53;99969.03;;;1.02;71.09
33496;BME280;19836;55.812;37.560;2022-11-20T08:23:19;99968.13;;;0.98;71.19
33496;BME280;19836;55.812;37.560;2022-11-20T08:25:48;99977.72;;;0.95;70.82
33496;BME280;19836;55.812;37.560;2022-11-20T08:28:17;99970.69;;;0.94;71.01
33496;BME280;19836;55.812;37.560;2022-11-20T08:30:42;99962.00;;;1.04;70.71
33496;BME280;19836;55.812;37.560;2022-11-20T08:33:08;99966.53;;;1.15;70.41
33496;BME280;19836;55.812;37.560;2022-11-20T08:35:35;99979.75;;;1.17;70.17
33496;BME280;19836;55.812;37.560;2022-11-20T08:38:02;99977.94;;;1.13;70.09
33496;BME280;19836;55.812;37.560;2022-11-20T08:43:17;99985.78;;;1.05;70.52
33496;BME280;19836;55.812;37.560;2022-11-20T08:48:39;99985.00;;;1.14;69.77
33496;BME280;19836;55.812;37.560;2022-11-20T08:51:05;99986.81;;;1.18;70.19
33496;BME280;19836;55.812;37.560;2022-11-20T08:53:31;99989.50;;;1.21;69.89
33496;BME280;19836;55.812;37.560;2022-11-20T08:55:57;99998.34;;;1.26;69.88
33496;BME280;19836;55.812;37.560;2022-11-20T08:58:26;99995.69;;;1.26;69.73
33496;BME280;19836;55.812;37.560;2022-11-20T09:00:52;99997.47;;;1.30;69.60
33496;BME280;19836;55.812;37.560;2022-11-20T09:03:19;100008.06;;;1.33;69.51
33496;BME280;19836;55.812;37.560;2022-11-20T09:06:19;100014.22;;;1.32;69.47
33496;BME280;19836;55.812;37.560;2022-11-20T09:08:39;100020.41;;;1.35;69.93
33496;BME280;19836;55.812;37.560;2022-11-20T09:11:10;100023.97;;;1.39;69.25
33496;BME280;19836;55.812;37.560;2022-11-20T09:13:37;100032.78;;;1.39;69.44
33496;BME280;19836;55.812;37.560;2022-11-20T09:16:04;100037.19;;;1.40;69.21
33496;BME280;19836;55.812;37.560;2022-11-20T09:18:34;100031.91;;;1.40;69.35
33496;BME280;19836;55.812;37.560;2022-11-20T09:21:08;100031.91;;;1.40;69.79
33496;BME280;19836;55.812;37.560;2022-11-20T09:23:36;100046.00;;;1.42;69.27
33496;BME280;19836;55.812;37.560;2022-11-20T09:26:07;100056.59;;;1.45;69.10
33496;BME280;19836;55.812;37.560;2022-11-20T09:28:34;100064.53;;;1.47;69.23
33496;BME280;19836;55.812;37.560;2022-11-20T09:31:09;100064.53;;;1.45;69.03
33496;BME280;19836;55.812;37.560;2022-11-20T09:33:35;100065.44;;;1.46;69.24
33496;BME280;19836;55.812;37.560;2022-11-20T09:36:01;100070.69;;;1.46;69.33
33496;BME280;19836;55.812;37.560;2022-11-20T09:38:29;100069.81;;;1.47;69.16
33496;BME280;19836;55.812;37.560;2022-11-20T09:41:02;100078.66;;;1.50;68.87
33496;BME280;19836;55.812;37.560;2022-11-20T09:43:46;100077.78;;;1.48;68.99
33496;BME280;19836;55.812;37.560;2022-11-20T09:56:56;100070.69;;;1.46;68.71
33496;BME280;19836;55.812;37.560;2022-11-20T10:05:03;100076.06;;;1.55;68.79
33496;BME280;19836;55.812;37.560;2022-11-20T10:07:36;100072.59;;;1.60;69.20
33496;BME280;19836;55.812;37.560;2022-11-20T10:10:04;100078.75;;;1.59;69.08
33496;BME280;19836;55.812;37.560;2022-11-20T10:26:57;100089.38;;;1.64;69.57
33496;BME280;19836;55.812;37.560;2022-11-20T10:29:35;100087.59;;;1.63;69.35
33496;BME280;19836;55.812;37.560;2022-11-20T10:32:11;100096.41;;;1.62;69.42
33496;BME280;19836;55.812;37.560;2022-11-20T10:40:58;100091.13;;;1.65;69.53
33496;BME280;19836;55.812;37.560;2022-11-20T10:46:37;100092.00;;;1.61;69.92
33496;BME280;19836;55.812;37.560;2022-11-20T10:49:18;100100.84;;;1.67;70.00
33496;BME280;19836;55.812;37.560;2022-11-20T10:57:10;100109.72;;;1.71;69.97
33496;BME280;19836;55.812;37.560;2022-11-20T11:00:00;100108.78;;;1.66;69.68
33496;BME280;19836;55.812;37.560;2022-11-20T11:03:07;100106.97;;;1.62;69.85
33496;BME280;19836;55.812;37.560;2022-11-20T11:05:33;100113.13;;;1.61;69.75
33496;BME280;19836;55.812;37.560;2022-11-20T11:08:35;100099.00;;;1.59;69.75
33496;BME280;19836;55.812;37.560;2022-11-20T11:14:04;100127.88;;;1.45;69.85
33496;BME280;19836;55.812;37.560;2022-11-20T11:16:33;100131.41;;;1.46;69.86
33496;BME280;19836;55.812;37.560;2022-11-20T11:19:06;100131.50;;;1.52;69.82
33496;BME280;19836;55.812;37.560;2022-11-20T11:21:33;100129.72;;;1.51;69.98
33496;BME280;19836;55.812;37.560;2022-11-20T11:24:02;100131.44;;;1.49;70.14
33496;BME280;19836;55.812;37.560;2022-11-20T11:26:29;100127.03;;;1.48;70.42
33496;BME280;19836;55.812;37.560;2022-11-20T11:28:59;100132.34;;;1.52;70.42
33496;BME280;19836;55.812;37.560;2022-11-20T11:32:24;100128.84;;;1.55;69.95
33496;BME280;19836;55.812;37.560;2022-11-20T11:34:59;100134.94;;;1.48;70.00
33496;BME280;19836;55.812;37.560;2022-11-20T11:37:26;100138.41;;;1.44;69.99
33496;BME280;19836;55.812;37.560;2022-11-20T11:39:55;100142.78;;;1.40;70.13
33496;BME280;19836;55.812;37.560;2022-11-20T11:42:21;100128.72;;;1.43;70.16
33496;BME280;19836;55.812;37.560;2022-11-20T11:44:47;100137.53;;;1.42;69.99
33496;BME280;19836;55.812;37.560;2022-11-20T11:50:15;100134.00;;;1.43;69.91
33496;BME280;19836;55.812;37.560;2022-11-20T11:55:33;100139.13;;;1.29;68.68
33496;BME280;19836;55.812;37.560;2022-11-20T11:58:11;100143.47;;;1.26;68.92
33496;BME280;19836;55.812;37.560;2022-11-20T12:00:41;100152.25;;;1.25;68.92
33496;BME280;19836;55.812;37.560;2022-11-20T12:03:55;100149.53;;;1.19;68.72
33496;BME280;19836;55.812;37.560;2022-11-20T12:06:28;100155.69;;;1.18;68.15
33496;BME280;19836;55.812;37.560;2022-11-20T12:13:14;100152.19;;;1.20;68.42
33496;BME280;19836;55.812;37.560;2022-11-20T12:15:57;100155.81;;;1.27;68.50
33496;BME280;19836;55.812;37.560;2022-11-20T12:18:24;100155.75;;;1.24;68.71
33496;BME280;19836;55.812;37.560;2022-11-20T12:23:32;100158.44;;;1.27;68.09
33496;BME280;19836;55.812;37.560;2022-11-20T12:26:03;100158.50;;;1.33;67.74
33496;BME280;19836;55.812;37.560;2022-11-20T12:34:04;100151.41;;;1.29;67.94
33496;BME280;19836;55.812;37.560;2022-11-20T12:39:30;100146.16;;;1.30;67.91
33496;BME280;19836;55.812;37.560;2022-11-20T12:45:10;100144.47;;;1.35;67.83
33496;BME280;19836;55.812;37.560;2022-11-20T12:56:23;100148.00;;;1.36;67.66
33496;BME280;19836;55.812;37.560;2022-11-20T13:06:50;100173.47;;;1.31;67.38
33496;BME280;19836;55.812;37.560;2022-11-20T13:09:16;100173.41;;;1.28;67.21
33496;BME280;19836;55.812;37.560;2022-11-20T13:12:19;100175.97;;;1.22;67.23
33496;BME280;19836;55.812;37.560;2022-11-20T13:14:44;100168.88;;;1.18;67.54
33496;BME280;19836;55.812;37.560;2022-11-20T13:20:12;100179.38;;;1.15;67.09
33496;BME280;19836;55.812;37.560;2022-11-20T13:25:09;100174.81;;;1.03;66.38
33496;BME280;19836;55.812;37.560;2022-11-20T13:27:46;100172.19;;;1.05;66.97
33496;BME280;19836;55.812;37.560;2022-11-20T13:30:15;100177.44;;;1.02;66.79
33496;BME280;19836;55.812;37.560;2022-11-20T13:35:55;100188.94;;;1.07;66.86
33496;BME280;19836;55.812;37.560;2022-11-20T13:38:20;100185.50;;;1.11;66.34
33496;BME280;19836;55.812;37.560;2022-11-20T13:40:51;100191.63;;;1.08;66.35
33496;BME280;19836;55.812;37.560;2022-11-20T13:43:28;100189.81;;;1.07;66.79
33496;BME280;19836;55.812;37.560;2022-11-20T13:46:02;100196.88;;;1.08;66.85
33496;BME280;19836;55.812;37.560;2022-11-20T13:48:44;100192.47;;;1.09;67.19
33496;BME280;19836;55.812;37.560;2022-11-20T13:59:21;100202.28;;;1.17;67.35
33496;BME280;19836;55.812;37.560;2022-11-20T14:01:53;100211.13;;;1.19;67.39
33496;BME280;19836;55.812;37.560;2022-11-20T14:04:26;100207.56;;;1.19;67.46
33496;BME280;19836;55.812;37.560;2022-11-20T14:06:55;100199.66;;;1.19;67.62
33496;BME280;19836;55.812;37.560;2022-11-20T14:09:25;100206.72;;;1.20;67.46
33496;BME280;19836;55.812;37.560;2022-11-20T14:11:54;100212.03;;;1.23;67.14
33496;BME280;19836;55.812;37.560;2022-11-20T14:14:21;100212.06;;;1.24;67.15
33496;BME280;19836;55.812;37.560;2022-11-20T14:16:48;100208.53;;;1.24;66.92
33496;BME280;19836;55.812;37.560;2022-11-20T14:19:23;100215.56;;;1.25;67.07
33496;BME280;19836;55.812;37.560;2022-11-20T14:21:54;100207.69;;;1.26;67.31
33496;BME280;19836;55.812;37.560;2022-11-20T14:24:31;100214.72;;;1.27;66.93
33496;BME280;19836;55.812;37.560;2022-11-20T14:26:57;100226.19;;;1.28;67.03
33496;BME280;19836;55.812;37.560;2022-11-20T14:29:26;100229.66;;;1.25;66.74
33496;BME280;19836;55.812;37.560;2022-11-20T14:31:57;100222.66;;;1.26;67.14
33496;BME280;19836;55.812;37.560;2022-11-20T14:34:24;100226.16;;;1.26;67.06
33496;BME280;19836;55.812;37.560;2022-11-20T14:36:57;100235.03;;;1.31;66.67
33496;BME280;19836;55.812;37.560;2022-11-20T14:39:36;100235.00;;;1.30;67.10
33496;BME280;19836;55.812;37.560;2022-11-20T14:42:17;100226.25;;;1.31;66.74
33496;BME280;19836;55.812;37.560;2022-11-20T14:44:45;100228.00;;;1.32;66.62
33496;BME280;19836;55.812;37.560;2022-11-20T14:47:15;100229.72;;;1.30;66.57
33496;BME280;19836;55.812;37.560;2022-11-20T14:49:46;100244.59;;;1.25;67.04
33496;BME280;19836;55.812;37.560;2022-11-20T14:52:13;100243.66;;;1.20;67.11
33496;BME280;19836;55.812;37.560;2022-11-20T14:54:44;100251.53;;;1.17;66.69
33496;BME280;19836;55.812;37.560;2022-11-20T14:57:20;100247.13;;;1.16;66.48
33496;BME280;19836;55.812;37.560;2022-11-20T14:59:49;100241.84;;;1.16;66.74
33496;BME280;19836;55.812;37.560;2022-11-20T15:02:20;100232.97;;;1.11;66.32
33496;BME280;19836;55.812;37.560;2022-11-20T15:04:49;100239.09;;;1.10;66.55
33496;BME280;19836;55.812;37.560;2022-11-20T15:07:24;100233.81;;;1.08;66.66
33496;BME280;19836;55.812;37.560;2022-11-20T15:10:01;100237.31;;;1.07;66.15
33496;BME280;19836;55.812;37.560;2022-11-20T15:12:29;100242.59;;;1.06;66.20
33496;BME280;19836;55.812;37.560;2022-11-20T15:14:59;100239.00;;;1.04;66.36
33496;BME280;19836;55.812;37.560;2022-11-20T15:17:29;100239.88;;;1.03;66.08
33496;BME280;19836;55.812;37.560;2022-11-20T15:19:58;100231.94;;;1.01;66.48
33496;BME280;19836;55.812;37.560;2022-11-20T15:22:25;100240.75;;;1.02;66.77
33496;BME280;19836;55.812;37.560;2022-11-20T15:24:57;100231.97;;;1.03;66.58
33496;BME280;19836;55.812;37.560;2022-11-20T15:27:23;100233.69;;;1.02;66.66
33496;BME280;19836;55.812;37.560;2022-11-20T15:29:52;100227.56;;;1.02;66.35
33496;BME280;19836;55.812;37.560;2022-11-20T15:32:19;100227.56;;;1.02;66.11
33496;BME280;19836;55.812;37.560;2022-11-20T15:34:45;100222.25;;;1.00;66.20
33496;BME280;19836;55.812;37.560;2022-11-20T15:37:14;100218.72;;;1.00;66.18
33496;BME280;19836;55.812;37.560;2022-11-20T15:39:44;100219.63;;;1.00;66.46
33496;BME280;19836;55.812;37.560;2022-11-20T15:42:10;100229.28;;;1.00;66.45
33496;BME280;19836;55.812;37.560;2022-11-20T15:44:36;100238.06;;;0.99;66.36
33496;BME280;19836;55.812;37.560;2022-11-20T15:47:02;100237.16;;;0.97;66.79
33496;BME280;19836;55.812;37.560;2022-11-20T15:49:45;100230.09;;;0.94;66.75
33496;BME280;19836;55.812;37.560;2022-11-20T15:57:46;100224.78;;;0.93;66.78
33496;BME280;19836;55.812;37.560;2022-11-20T16:00:21;100224.03;;;1.01;67.26
33496;BME280;19836;55.812;37.560;2022-11-20T16:02:50;100225.81;;;1.04;66.97
33496;BME280;19836;55.812;37.560;2022-11-20T16:05:16;100236.44;;;1.07;67.06
33496;BME280;19836;55.812;37.560;2022-11-20T16:22:45;100246.91;;;1.01;67.04
33496;BME280;19836;55.812;37.560;2022-11-20T16:25:30;100244.25;;;1.01;66.80